createdAt,value
2019-03-31T00:00:21.883Z,66.8
2019-03-31T00:01:20.750Z,67
2019-03-31T00:02:20.014Z,66.6
2019-03-31T00:05:17.562Z,66.5
2019-03-31T00:05:48.144Z,66.5
2019-03-31T00:07:15.697Z,66.7
2019-03-31T00:08:15.077Z,66.7
2019-03-31T00:09:13.850Z,66.6
2019-03-31T00:10:13.237Z,66.7
2019-03-31T00:11:12.602Z,66.8
2019-03-31T00:12:11.270Z,66.8
2019-03-31T00:15:08.909Z,67
2019-03-31T00:15:39.605Z,67
2019-03-31T00:17:07.157Z,67.5
2019-03-31T00:20:04.935Z,67.4
2019-03-31T00:21:03.800Z,67.4
2019-03-31T00:22:03.075Z,67.4
2019-03-31T00:23:02.256Z,67.3
2019-03-31T00:24:01.431Z,67.7
2019-03-31T00:25:59.496Z,68.6
2019-03-31T00:26:30.083Z,68.6
2019-03-31T00:27:00.567Z,68.5
2019-03-31T00:27:57.747Z,68.4
2019-03-31T00:28:57.122Z,68.4
2019-03-31T00:29:56.014Z,68.4
2019-03-31T00:31:54.664Z,68.6
2019-03-31T00:32:53.534Z,67.8
2019-03-31T00:33:52.899Z,68.1
2019-03-31T00:37:49.327Z,68.2
2019-03-31T00:38:48.195Z,68.1
2019-03-31T00:39:47.643Z,68.4
2019-03-31T00:40:46.913Z,68.3
2019-03-31T00:41:17.506Z,68.3
2019-03-31T00:41:48.193Z,68.3
2019-03-31T00:42:45.042Z,68.1
2019-03-31T00:43:43.913Z,68.1
2019-03-31T00:44:43.202Z,68.1
2019-03-31T00:45:42.493Z,68.2
2019-03-31T00:46:13.094Z,68.2
2019-03-31T00:46:43.685Z,68.5
2019-03-31T00:47:40.602Z,68.4
2019-03-31T00:49:38.853Z,68.4
2019-03-31T00:52:36.493Z,68.7
2019-03-31T00:54:34.743Z,68.8
2019-03-31T00:55:33.907Z,69.2
2019-03-31T00:56:33.184Z,69.3
2019-03-31T00:57:31.976Z,69.2
2019-03-31T00:58:31.380Z,69.2
2019-03-31T01:00:29.534Z,70.3
2019-03-31T01:01:00.117Z,70.3
2019-03-31T01:01:37.309Z,70.1
2019-03-31T01:02:01.291Z,70.1
2019-03-31T01:03:26.848Z,70.3
2019-03-31T01:05:25.113Z,70.1
2019-03-31T01:08:22.748Z,69.7
2019-03-31T01:09:21.613Z,69.1
2019-03-31T01:10:20.988Z,69.5
2019-03-31T01:11:19.861Z,69
2019-03-31T01:11:50.540Z,69
2019-03-31T01:12:21.126Z,68.4
2019-03-31T01:12:51.702Z,68.4
2019-03-31T01:14:17.552Z,68.4
2019-03-31T01:15:16.623Z,68.3
2019-03-31T01:16:15.997Z,68.4
2019-03-31T01:17:14.882Z,68.3
2019-03-31T01:18:14.362Z,68.3
2019-03-31T01:20:12.536Z,68.1
2019-03-31T01:21:11.411Z,68.2
2019-03-31T01:21:42.096Z,68.2
2019-03-31T01:22:12.673Z,68.3
2019-03-31T01:22:43.164Z,68.3
2019-03-31T01:23:13.452Z,68.3
2019-03-31T01:23:44.129Z,68.3
2019-03-31T01:25:07.861Z,68.4
2019-03-31T01:26:07.135Z,68.4
2019-03-31T01:27:06.302Z,68.5
2019-03-31T01:28:05.580Z,68.5
2019-03-31T01:29:04.346Z,68.6
2019-03-31T01:31:02.994Z,68.8
2019-03-31T01:31:33.677Z,68.8
2019-03-31T01:32:04.260Z,68.8
2019-03-31T01:32:34.956Z,68.8
2019-03-31T01:33:05.442Z,68.9
2019-03-31T01:33:36.102Z,68.9
2019-03-31T01:34:06.589Z,68.9
2019-03-31T01:34:37.171Z,68.9
2019-03-31T01:35:58.586Z,68.9
2019-03-31T01:36:57.449Z,68.9
2019-03-31T01:40:54.279Z,69
2019-03-31T01:41:24.864Z,69
2019-03-31T01:41:55.541Z,68.7
2019-03-31T01:42:26.128Z,68.7
2019-03-31T01:43:51.661Z,68.7
2019-03-31T01:44:22.333Z,68.7
2019-03-31T01:44:53.020Z,68.7
2019-03-31T01:45:23.686Z,68.7
2019-03-31T01:46:49.143Z,68.6
2019-03-31T01:48:47.387Z,68.5
2019-03-31T01:50:45.644Z,68
2019-03-31T01:51:16.328Z,68
2019-03-31T01:51:46.909Z,68.2
2019-03-31T01:52:17.485Z,68.2
2019-03-31T01:52:48.129Z,68.5
2019-03-31T01:53:18.817Z,68.5
2019-03-31T01:53:49.064Z,68.4
2019-03-31T01:54:19.741Z,68.4
2019-03-31T01:54:50.422Z,68.4
2019-03-31T01:55:21.099Z,68.4
2019-03-31T01:56:40.593Z,68.8
2019-03-31T01:57:39.500Z,68.7
2019-03-31T01:58:38.880Z,68.8
2019-03-31T02:00:36.941Z,68.7
2019-03-31T02:01:36.300Z,68.7
2019-03-31T02:02:06.557Z,68.7
2019-03-31T02:02:37.051Z,69
2019-03-31T02:03:07.633Z,69
2019-03-31T02:03:38.230Z,69.1
2019-03-31T02:04:08.815Z,69.1
2019-03-31T02:05:32.863Z,69.6
2019-03-31T02:06:03.357Z,69.6
2019-03-31T02:07:30.816Z,69.6
2019-03-31T02:08:30.171Z,69.7
2019-03-31T02:10:28.321Z,69.8
2019-03-31T02:11:27.583Z,69.9
2019-03-31T02:12:26.453Z,70
2019-03-31T02:12:57.138Z,70
2019-03-31T02:13:27.619Z,70.1
2019-03-31T02:13:58.209Z,70.1
2019-03-31T02:14:28.881Z,70.2
2019-03-31T02:14:59.467Z,70.2
2019-03-31T02:16:23.208Z,70.4
2019-03-31T02:17:21.986Z,70.2
2019-03-31T02:18:21.406Z,70.5
2019-03-31T02:19:20.680Z,70.4
2019-03-31T02:20:19.355Z,70.5
2019-03-31T02:21:18.724Z,70.4
2019-03-31T02:22:18.010Z,70.4
2019-03-31T02:23:16.943Z,70.7
2019-03-31T02:23:47.535Z,70.7
2019-03-31T02:24:17.752Z,70.7
2019-03-31T02:24:48.236Z,70.7
2019-03-31T02:26:14.275Z,70.7
2019-03-31T02:27:13.634Z,71
2019-03-31T02:28:12.900Z,70.8
2019-03-31T02:29:11.762Z,70.9
2019-03-31T02:30:11.036Z,70.9
2019-03-31T02:31:09.927Z,70.9
2019-03-31T02:32:24.754Z,70.9
2019-03-31T02:33:08.356Z,71
2019-03-31T02:34:07.682Z,71
2019-03-31T02:34:38.387Z,71
2019-03-31T02:35:08.587Z,71.2
2019-03-31T02:35:39.291Z,71.2
2019-03-31T02:36:09.495Z,71.2
2019-03-31T02:36:40.192Z,71.2
2019-03-31T02:38:04.163Z,71.6
2019-03-31T02:39:03.363Z,71.6
2019-03-31T02:40:02.178Z,71.6
2019-03-31T02:41:01.608Z,71.7
2019-03-31T02:42:00.397Z,71.9
2019-03-31T02:42:59.804Z,71.9
2019-03-31T02:43:58.694Z,72
2019-03-31T02:44:29.390Z,72
2019-03-31T02:44:59.971Z,72.3
2019-03-31T02:45:30.278Z,72.3
2019-03-31T02:47:55.204Z,72.3
2019-03-31T02:48:54.591Z,72.4
2019-03-31T02:49:53.361Z,72.5
2019-03-31T02:50:52.777Z,72.7
2019-03-31T02:51:51.740Z,72.7
2019-03-31T02:52:51.165Z,72.9
2019-03-31T02:53:50.042Z,72.9
2019-03-31T02:54:49.355Z,72.8
2019-03-31T02:55:19.549Z,72.8
2019-03-31T02:55:50.172Z,72.6
2019-03-31T02:56:47.334Z,72.5
2019-03-31T02:57:46.674Z,72.6
2019-03-31T02:58:45.573Z,72.6
2019-03-31T02:59:45.002Z,72.8
2019-03-31T03:00:43.895Z,72.8
2019-03-31T03:01:42.847Z,72.8
2019-03-31T03:02:43.110Z,72.9
2019-03-31T03:03:41.405Z,73.3
2019-03-31T03:04:40.318Z,73.3
2019-03-31T03:05:39.294Z,73.1
2019-03-31T03:06:38.716Z,73.1
2019-03-31T03:07:37.610Z,73.2
2019-03-31T03:09:35.894Z,72.8
2019-03-31T03:10:34.919Z,73.1
2019-03-31T03:11:05.121Z,73.1
2019-03-31T03:11:35.751Z,73.2
2019-03-31T03:12:33.619Z,73.2
2019-03-31T03:13:32.522Z,73.3
2019-03-31T03:14:31.408Z,73.1
2019-03-31T03:15:30.702Z,73.5
2019-03-31T03:16:30.103Z,73.2
2019-03-31T03:17:28.980Z,73.1
2019-03-31T03:18:27.885Z,73.2
2019-03-31T03:19:27.279Z,73
2019-03-31T03:20:26.074Z,73
2019-03-31T03:20:56.873Z,73
2019-03-31T03:21:27.122Z,73
2019-03-31T03:21:57.347Z,73
2019-03-31T03:22:27.986Z,73.2
2019-03-31T03:22:58.206Z,73.2
2019-03-31T03:23:28.811Z,73
2019-03-31T03:24:22.897Z,72.8
2019-03-31T03:25:21.790Z,72.7
2019-03-31T03:26:21.214Z,72.7
2019-03-31T03:27:20.020Z,72.6
2019-03-31T03:28:19.369Z,72.6
2019-03-31T03:29:18.167Z,72.6
2019-03-31T03:30:17.946Z,73.1
2019-03-31T03:30:48.405Z,73.1
2019-03-31T03:31:18.834Z,72.6
2019-03-31T03:31:49.334Z,72.6
2019-03-31T03:32:19.995Z,72.4
2019-03-31T03:33:17.495Z,72.4
2019-03-31T03:33:21.715Z,72.4
2019-03-31T03:33:52.095Z,72.4
2019-03-31T03:34:22.680Z,72.5
2019-03-31T03:35:13.065Z,72.7
2019-03-31T03:36:11.992Z,72.3
2019-03-31T03:37:11.405Z,72.5
2019-03-31T03:38:10.301Z,72.5
2019-03-31T03:39:09.606Z,72.5
2019-03-31T03:40:08.520Z,72.4
2019-03-31T03:40:38.725Z,72.4
2019-03-31T03:41:09.021Z,72.5
2019-03-31T03:41:39.218Z,72.5
2019-03-31T03:42:09.833Z,72.3
2019-03-31T03:42:40.041Z,72.3
2019-03-31T03:43:10.165Z,72.3
2019-03-31T03:43:58.019Z,72.3
2019-03-31T03:45:04.055Z,72.5
2019-03-31T03:46:03.532Z,72.3
2019-03-31T03:47:02.447Z,72.4
2019-03-31T03:48:01.374Z,72.5
2019-03-31T03:49:59.697Z,72.7
2019-03-31T03:50:29.931Z,72.7
2019-03-31T03:51:00.545Z,72.7
2019-03-31T03:51:30.756Z,72.7
2019-03-31T03:52:00.967Z,72.7
2019-03-31T03:52:31.597Z,72.7
2019-03-31T03:53:01.827Z,72.8
2019-03-31T03:53:32.166Z,72.8
2019-03-31T03:54:55.218Z,72.9
2019-03-31T03:55:54.612Z,72.8
2019-03-31T03:56:53.835Z,72.9
2019-03-31T03:57:52.727Z,73
2019-03-31T03:58:51.623Z,72.9
2019-03-31T03:59:51.045Z,73
2019-03-31T04:00:21.264Z,73
2019-03-31T04:00:51.532Z,73.2
2019-03-31T04:01:22.234Z,73.2
2019-03-31T04:01:52.461Z,73.2
2019-03-31T04:02:23.106Z,73.2
2019-03-31T04:02:53.834Z,73.2
2019-03-31T04:03:31.344Z,73.2
2019-03-31T04:03:54.339Z,73.5
2019-03-31T04:04:24.655Z,73.5
2019-03-31T04:05:45.607Z,73.3
2019-03-31T04:06:44.988Z,73.4
2019-03-31T04:07:43.783Z,73.4
2019-03-31T04:08:43.198Z,73.6
2019-03-31T04:09:42.081Z,73.6
2019-03-31T04:10:12.344Z,73.6
2019-03-31T04:10:42.541Z,73.7
2019-03-31T04:11:12.781Z,73.7
2019-03-31T04:11:43.429Z,73.8
2019-03-31T04:12:13.510Z,73.8
2019-03-31T04:12:44.313Z,73.8
2019-03-31T04:13:14.511Z,73.8
2019-03-31T04:13:44.883Z,73.8
2019-03-31T04:14:15.115Z,73.8
2019-03-31T04:15:36.589Z,74
2019-03-31T04:16:35.991Z,74.1
2019-03-31T04:18:34.282Z,74.1
2019-03-31T04:19:33.163Z,74.2
2019-03-31T04:20:32.073Z,74.3
2019-03-31T04:21:02.302Z,74.3
2019-03-31T04:21:32.857Z,74.4
2019-03-31T04:22:03.076Z,74.4
2019-03-31T04:22:33.713Z,74.5
2019-03-31T04:23:03.930Z,74.5
2019-03-31T04:23:34.042Z,74.6
2019-03-31T04:24:04.675Z,74.6
2019-03-31T04:25:27.730Z,74.5
2019-03-31T04:26:27.029Z,74.5
2019-03-31T04:27:25.923Z,74.8
2019-03-31T04:29:24.241Z,74.7
2019-03-31T04:31:22.660Z,74.8
2019-03-31T04:31:52.784Z,74.8
2019-03-31T04:32:23.456Z,74.7
2019-03-31T04:32:53.671Z,74.7
2019-03-31T04:33:23.877Z,74.8
2019-03-31T04:33:54.412Z,74.8
2019-03-31T04:34:24.623Z,74.8
2019-03-31T04:34:55.179Z,74.8
2019-03-31T04:37:17.124Z,75.2
2019-03-31T04:38:16.534Z,75.1
2019-03-31T04:39:15.330Z,74.9
2019-03-31T04:40:14.732Z,75.2
2019-03-31T04:41:13.651Z,75.3
2019-03-31T04:42:12.545Z,75.5
2019-03-31T04:42:43.240Z,75.5
2019-03-31T04:43:13.839Z,75.5
2019-03-31T04:43:44.079Z,75.5
2019-03-31T04:44:14.764Z,75.4
2019-03-31T04:44:45.462Z,75.4
2019-03-31T04:46:09.014Z,75.8
2019-03-31T04:47:08.389Z,75.8
2019-03-31T04:48:07.296Z,75.9
2019-03-31T04:49:06.691Z,75.8
2019-03-31T04:50:05.481Z,76
2019-03-31T04:51:04.722Z,76
2019-03-31T04:52:04.021Z,75.9
2019-03-31T04:53:02.704Z,76.3
2019-03-31T04:53:33.397Z,76.3
2019-03-31T04:54:04.089Z,76.3
2019-03-31T04:54:34.787Z,76.3
2019-03-31T04:55:05.388Z,76.4
2019-03-31T04:55:36.082Z,76.4
2019-03-31T04:56:06.571Z,76.4
2019-03-31T04:56:59.402Z,76.4
2019-03-31T04:57:58.189Z,76.5
2019-03-31T04:58:57.629Z,76.5
2019-03-31T04:59:56.498Z,76.6
2019-03-31T05:00:55.886Z,76.7
2019-03-31T05:01:54.669Z,76.6
2019-03-31T05:02:54.058Z,76.9
2019-03-31T05:04:05.418Z,77
2019-03-31T05:04:23.264Z,77
2019-03-31T05:04:53.477Z,77.3
2019-03-31T05:05:51.251Z,77
2019-03-31T05:06:50.129Z,77
2019-03-31T05:07:49.414Z,77.2
2019-03-31T05:09:47.677Z,77.2
2019-03-31T05:10:46.943Z,77.3
2019-03-31T05:11:45.822Z,77.3
2019-03-31T05:12:45.206Z,77.5
2019-03-31T05:13:43.885Z,77.4
2019-03-31T05:14:43.264Z,77.5
2019-03-31T05:15:42.028Z,77.4
2019-03-31T05:16:41.302Z,77.4
2019-03-31T05:17:40.674Z,77.5
2019-03-31T05:18:39.622Z,77.4
2019-03-31T05:19:38.517Z,77.5
2019-03-31T05:20:08.727Z,77.5
2019-03-31T05:21:36.701Z,77.5
2019-03-31T05:22:36.156Z,77.5
2019-03-31T05:23:35.114Z,77.7
2019-03-31T05:24:34.391Z,77.5
2019-03-31T05:25:33.259Z,77.5
2019-03-31T05:27:31.515Z,77.6
2019-03-31T05:28:30.387Z,77.8
2019-03-31T05:29:29.665Z,77.6
2019-03-31T05:30:00.395Z,77.6
2019-03-31T05:32:26.915Z,77.5
2019-03-31T05:33:26.206Z,77.7
2019-03-31T05:34:24.999Z,77.8
2019-03-31T05:35:27.394Z,77.8
2019-03-31T05:37:22.634Z,77.7
2019-03-31T05:38:21.508Z,77.9
2019-03-31T05:39:20.884Z,77.9
2019-03-31T05:39:51.573Z,77.9
2019-03-31T05:40:22.076Z,77.8
2019-03-31T05:40:52.782Z,77.8
2019-03-31T05:42:17.835Z,78
2019-03-31T05:43:17.027Z,77.8
2019-03-31T05:44:16.340Z,77.9
2019-03-31T05:45:15.116Z,77.9
2019-03-31T05:46:14.304Z,77.9
2019-03-31T05:48:12.571Z,78.1
2019-03-31T05:49:11.855Z,77.8
2019-03-31T05:49:42.539Z,77.8
2019-03-31T05:50:13.126Z,77.8
2019-03-31T05:50:43.818Z,77.8
2019-03-31T05:51:14.333Z,77.8
2019-03-31T05:51:45.064Z,77.8
2019-03-31T05:53:07.999Z,77.9
2019-03-31T05:54:07.174Z,77.8
2019-03-31T05:58:03.706Z,77.7
2019-03-31T05:59:02.491Z,77.6
2019-03-31T05:59:33.178Z,77.6
2019-03-31T06:00:03.856Z,77.6
2019-03-31T06:00:34.565Z,77.6
2019-03-31T06:01:05.152Z,77.5
2019-03-31T06:01:35.755Z,77.5
2019-03-31T06:02:05.849Z,77.6
2019-03-31T06:02:36.436Z,77.6
2019-03-31T06:03:58.457Z,77.5
2019-03-31T06:04:57.335Z,77.5
2019-03-31T06:07:54.970Z,77.5
2019-03-31T06:10:51.928Z,77.4
2019-03-31T06:11:22.517Z,77.4
2019-03-31T06:12:50.083Z,77
2019-03-31T06:13:20.771Z,77
2019-03-31T06:13:51.433Z,77.1
2019-03-31T06:14:48.714Z,77.3
2019-03-31T06:15:47.485Z,77.2
2019-03-31T06:18:45.130Z,76.9
2019-03-31T06:19:15.813Z,76.9
2019-03-31T06:19:46.397Z,77
2019-03-31T06:20:16.888Z,77
2019-03-31T06:20:47.575Z,77.1
2019-03-31T06:21:18.066Z,77.1
2019-03-31T06:21:48.661Z,76.8
2019-03-31T06:22:19.254Z,76.8
2019-03-31T06:22:49.953Z,76.9
2019-03-31T06:23:20.158Z,76.9
2019-03-31T06:24:39.570Z,76.8
2019-03-31T06:25:38.950Z,76.8
2019-03-31T06:26:37.723Z,76.8
2019-03-31T06:27:36.999Z,76.8
2019-03-31T06:28:35.869Z,76.8
2019-03-31T06:29:35.149Z,76.7
2019-03-31T06:30:05.744Z,76.7
2019-03-31T06:30:35.976Z,76.7
2019-03-31T06:31:06.666Z,76.7
2019-03-31T06:31:37.347Z,76.8
2019-03-31T06:32:08.037Z,76.8
2019-03-31T06:34:30.979Z,76.8
2019-03-31T06:35:29.750Z,76.8
2019-03-31T06:36:29.029Z,77
2019-03-31T06:37:27.925Z,76.8
2019-03-31T06:38:27.325Z,76.8
2019-03-31T06:40:25.478Z,76.7
2019-03-31T06:40:55.981Z,76.7
2019-03-31T06:41:26.176Z,77
2019-03-31T06:41:56.872Z,77
2019-03-31T06:42:27.023Z,76.9
2019-03-31T06:42:57.614Z,76.9
2019-03-31T06:45:20.838Z,77
2019-03-31T06:46:20.007Z,77.3
2019-03-31T06:48:18.259Z,77.2
2019-03-31T06:49:17.528Z,77
2019-03-31T06:50:16.409Z,77.2
2019-03-31T06:50:46.898Z,77.2
2019-03-31T06:51:17.596Z,77
2019-03-31T06:51:47.661Z,77
2019-03-31T06:52:18.348Z,77.1
2019-03-31T06:52:48.939Z,77.1
2019-03-31T06:54:12.967Z,77.1
2019-03-31T06:55:12.339Z,77.3
2019-03-31T06:56:11.418Z,77.2
2019-03-31T06:58:09.681Z,77.4
2019-03-31T07:00:07.938Z,77.1
2019-03-31T07:01:06.727Z,77.2
2019-03-31T07:01:37.432Z,77.2
2019-03-31T07:02:07.636Z,77.2
2019-03-31T07:02:38.336Z,77.2
2019-03-31T07:04:04.293Z,77.3
2019-03-31T07:05:03.571Z,77.2
2019-03-31T07:06:02.347Z,77.2
2019-03-31T07:08:00.603Z,77.3
2019-03-31T07:08:59.970Z,77.2
2019-03-31T07:09:59.244Z,77.2
2019-03-31T07:10:58.383Z,77.1
2019-03-31T07:11:57.270Z,77
2019-03-31T07:12:27.855Z,77
2019-03-31T07:13:00.128Z,76.7
2019-03-31T07:13:29.204Z,76.7
2019-03-31T07:13:59.697Z,76.6
2019-03-31T07:14:54.855Z,76.5
2019-03-31T07:15:53.614Z,76.2
2019-03-31T07:16:52.976Z,76.5
2019-03-31T07:17:51.973Z,76.5
2019-03-31T07:18:51.348Z,76.6
2019-03-31T07:19:50.120Z,76.6
2019-03-31T07:20:49.500Z,76.8
2019-03-31T07:21:48.779Z,77.1
2019-03-31T07:22:47.542Z,77.1
2019-03-31T07:23:18.130Z,77.1
2019-03-31T07:23:48.824Z,77.1
2019-03-31T07:26:44.454Z,77.3
2019-03-31T07:27:43.541Z,77.5
2019-03-31T07:28:14.234Z,77.5
2019-03-31T07:28:44.926Z,77.6
2019-03-31T07:29:15.611Z,77.6
2019-03-31T07:30:40.654Z,77.8
2019-03-31T07:32:38.911Z,77.6
2019-03-31T07:33:38.202Z,77.8
2019-03-31T07:34:37.088Z,77.9
2019-03-31T07:35:39.311Z,77.9
2019-03-31T07:36:35.672Z,77.8
2019-03-31T07:38:39.929Z,77.9
2019-03-31T07:39:04.835Z,77.9
2019-03-31T07:39:35.160Z,77.9
2019-03-31T07:40:05.265Z,77.9
2019-03-31T07:40:35.391Z,78
2019-03-31T07:41:31.361Z,78
2019-03-31T07:42:30.658Z,78.3
2019-03-31T07:43:29.611Z,78.3
2019-03-31T07:44:28.505Z,78.4
2019-03-31T07:45:27.497Z,78.6
2019-03-31T07:46:26.823Z,79
2019-03-31T07:47:25.689Z,79.4
2019-03-31T07:47:56.281Z,79.4
2019-03-31T07:49:24.333Z,79.7
2019-03-31T07:49:54.954Z,79.7
2019-03-31T07:50:28.609Z,79.9
2019-03-31T07:50:55.790Z,79.9
2019-03-31T07:51:26.481Z,80
2019-03-31T07:52:21.319Z,80.1
2019-03-31T07:53:20.591Z,80.1
2019-03-31T07:54:19.872Z,80.2
2019-03-31T07:55:18.644Z,80.2
2019-03-31T07:56:17.827Z,80.3
2019-03-31T07:57:17.120Z,80.5
2019-03-31T07:58:16.025Z,80.5
2019-03-31T07:58:46.463Z,80.5
2019-03-31T07:59:16.735Z,80.4
2019-03-31T07:59:46.967Z,80.4
2019-03-31T08:00:17.188Z,80.3
2019-03-31T08:00:47.793Z,80.3
2019-03-31T08:01:18.301Z,80.3
2019-03-31T08:01:48.783Z,80.3
2019-03-31T08:02:19.467Z,80.2
2019-03-31T08:03:11.795Z,80.5
2019-03-31T08:04:11.092Z,80.4
2019-03-31T08:05:09.969Z,80.2
2019-03-31T08:06:09.360Z,80.7
2019-03-31T08:07:08.137Z,80.7
2019-03-31T08:08:07.411Z,80.5
2019-03-31T08:08:38.092Z,80.5
2019-03-31T08:09:08.758Z,80.9
2019-03-31T08:09:39.457Z,80.9
2019-03-31T08:10:09.950Z,80.8
2019-03-31T08:10:40.638Z,80.8
2019-03-31T08:12:03.976Z,80.8
2019-03-31T08:13:03.273Z,80.9
2019-03-31T08:14:02.153Z,81.1
2019-03-31T08:15:01.434Z,81.1
2019-03-31T08:16:00.316Z,81.1
2019-03-31T08:16:59.675Z,81
2019-03-31T08:17:58.557Z,80.7
2019-03-31T08:18:29.249Z,80.7
2019-03-31T08:18:59.853Z,81
2019-03-31T08:19:30.541Z,81
2019-03-31T08:20:01.055Z,81.2
2019-03-31T08:20:31.655Z,81.2
2019-03-31T08:21:02.345Z,81.3
2019-03-31T08:21:32.834Z,81.3
2019-03-31T08:22:57.490Z,81.6
2019-03-31T08:23:53.304Z,81.5
2019-03-31T08:24:52.676Z,81.7
2019-03-31T08:25:51.442Z,81.7
2019-03-31T08:26:50.715Z,81.8
2019-03-31T08:27:50.104Z,81.7
2019-03-31T08:28:21.368Z,81.7
2019-03-31T08:28:51.001Z,81.7
2019-03-31T08:29:21.207Z,81.7
2019-03-31T08:30:01.422Z,81.6
2019-03-31T08:30:21.901Z,81.6
2019-03-31T08:30:52.538Z,81.7
2019-03-31T08:31:23.227Z,81.7
2019-03-31T08:31:53.928Z,81.6
2019-03-31T08:32:24.186Z,81.6
2019-03-31T08:33:44.550Z,80.9
2019-03-31T08:34:43.927Z,81.4
2019-03-31T08:35:48.090Z,81.2
2019-03-31T08:37:41.036Z,81.3
2019-03-31T08:38:11.631Z,81.3
2019-03-31T08:38:42.342Z,81.3
2019-03-31T08:39:12.839Z,81.3
2019-03-31T08:39:43.524Z,81.4
2019-03-31T08:40:14.209Z,81.4
2019-03-31T08:40:44.898Z,81.3
2019-03-31T08:41:15.594Z,81.3
2019-03-31T08:41:46.285Z,81.5
2019-03-31T08:42:16.968Z,81.5
2019-03-31T08:43:36.006Z,81.4
2019-03-31T08:44:34.873Z,81.2
2019-03-31T08:45:34.175Z,81.3
2019-03-31T08:46:32.947Z,81.3
2019-03-31T08:47:32.314Z,81.3
2019-03-31T08:48:31.584Z,81.2
2019-03-31T08:49:02.088Z,81.2
2019-03-31T08:49:32.781Z,81.4
2019-03-31T08:50:03.377Z,81.4
2019-03-31T08:50:35.291Z,81
2019-03-31T08:51:04.488Z,81
2019-03-31T08:51:35.186Z,81.3
2019-03-31T08:52:05.781Z,81.3
2019-03-31T08:53:26.791Z,81.3
2019-03-31T08:54:26.170Z,81
2019-03-31T08:55:25.042Z,81
2019-03-31T08:56:24.317Z,81.3
2019-03-31T08:57:23.698Z,81.5
2019-03-31T08:59:21.863Z,81.6
2019-03-31T08:59:52.455Z,81.6
2019-03-31T09:00:23.048Z,81.7
2019-03-31T09:00:53.645Z,81.7
2019-03-31T09:02:19.205Z,81.5
2019-03-31T09:02:49.892Z,81.5
2019-03-31T09:03:20.547Z,81.7
2019-03-31T09:05:16.297Z,81.4
2019-03-31T09:06:15.679Z,81.2
2019-03-31T09:07:14.556Z,81.3
2019-03-31T09:08:13.827Z,81
2019-03-31T09:09:13.178Z,81.2
2019-03-31T09:10:11.962Z,81.1
2019-03-31T09:10:42.245Z,81.1
2019-03-31T09:11:13.011Z,81.2
2019-03-31T09:11:43.521Z,81.2
2019-03-31T09:14:08.449Z,81.5
2019-03-31T09:15:07.730Z,81.6
2019-03-31T09:17:05.985Z,81.2
2019-03-31T09:18:04.861Z,81.3
2019-03-31T09:20:03.439Z,81.2
2019-03-31T09:21:02.317Z,81
2019-03-31T09:21:32.424Z,81
2019-03-31T09:22:03.023Z,81.3
2019-03-31T09:22:33.708Z,81.3
2019-03-31T09:23:04.357Z,81.3
2019-03-31T09:23:59.708Z,81.1
2019-03-31T09:24:58.979Z,81
2019-03-31T09:25:57.858Z,81
2019-03-31T09:26:57.237Z,81.2
2019-03-31T09:32:51.940Z,80.8
2019-03-31T09:33:51.226Z,81.6
2019-03-31T09:34:49.943Z,81.6
2019-03-31T09:35:49.322Z,81.7
2019-03-31T09:37:47.477Z,81.8
2019-03-31T09:38:48.835Z,81.4
2019-03-31T09:46:39.889Z,81.7
2019-03-31T09:47:10.583Z,81.7
2019-03-31T09:47:41.186Z,81.5
2019-03-31T09:48:11.888Z,81.5
2019-03-31T09:50:36.158Z,81.7
2019-03-31T09:51:35.439Z,81.4
2019-03-31T09:52:34.315Z,81.2
2019-03-31T09:53:33.595Z,81.1
2019-03-31T09:54:32.978Z,80.8
2019-03-31T09:56:31.223Z,80.9
2019-03-31T09:57:30.101Z,80.5
2019-03-31T09:58:00.296Z,80.5
2019-03-31T09:59:28.356Z,80.4
2019-03-31T10:01:26.523Z,80.6
2019-03-31T10:02:25.802Z,79.9
2019-03-31T10:03:25.182Z,79.9
2019-03-31T10:05:23.347Z,79.7
2019-03-31T10:06:30.877Z,79.7
2019-03-31T10:07:24.157Z,79
2019-03-31T10:07:51.728Z,79
2019-03-31T10:08:22.791Z,78.3
2019-03-31T10:08:53.000Z,78.3
2019-03-31T10:12:17.336Z,79.1
2019-03-31T10:14:15.500Z,79.3
2019-03-31T10:15:14.372Z,78.8
2019-03-31T10:16:13.746Z,78.7
2019-03-31T10:19:11.295Z,78.9
2019-03-31T10:19:41.894Z,78.9
2019-03-31T10:22:08.351Z,79.4
2019-03-31T10:25:06.008Z,79.1
2019-03-31T10:26:05.191Z,79.5
2019-03-31T10:27:04.138Z,79.4
2019-03-31T10:27:34.305Z,79.4
2019-03-31T10:28:04.991Z,79.3
2019-03-31T10:28:35.625Z,79.3
2019-03-31T10:29:06.215Z,79.2
2019-03-31T10:29:36.916Z,79.2
2019-03-31T10:30:07.176Z,79
2019-03-31T10:30:37.868Z,79
2019-03-31T10:31:59.806Z,78.1
2019-03-31T10:32:59.085Z,78.4
2019-03-31T10:33:57.947Z,78.4
2019-03-31T10:34:57.215Z,77.9
2019-03-31T10:35:56.494Z,77.7
2019-03-31T10:36:55.778Z,78
2019-03-31T10:37:26.463Z,78
2019-03-31T10:37:57.155Z,77.6
2019-03-31T10:38:27.742Z,77.6
2019-03-31T10:38:58.328Z,77.6
2019-03-31T10:39:29.012Z,77.6
2019-03-31T10:39:59.598Z,78
2019-03-31T10:40:29.990Z,78
2019-03-31T10:41:00.594Z,77.9
2019-03-31T10:41:31.415Z,77.9
2019-03-31T10:42:50.324Z,78
2019-03-31T10:43:49.607Z,78.3
2019-03-31T10:44:48.475Z,77.9
2019-03-31T10:45:47.751Z,78.3
2019-03-31T10:46:46.938Z,78.5
2019-03-31T10:47:17.619Z,78.5
2019-03-31T10:47:48.397Z,78.7
2019-03-31T10:48:21.497Z,78.7
2019-03-31T10:48:49.257Z,78.8
2019-03-31T10:49:19.855Z,78.8
2019-03-31T10:49:50.349Z,79.4
2019-03-31T10:50:20.931Z,79.4
2019-03-31T10:50:51.509Z,79.4
2019-03-31T10:51:22.097Z,79.4
2019-03-31T10:52:41.497Z,79.4
2019-03-31T10:53:40.771Z,79.3
2019-03-31T10:54:40.059Z,79.3
2019-03-31T10:55:39.337Z,79.2
2019-03-31T10:56:38.206Z,78.8
2019-03-31T10:57:37.482Z,78.9
2019-03-31T10:58:08.166Z,78.9
2019-03-31T10:58:38.577Z,78.9
2019-03-31T10:59:09.261Z,78.9
2019-03-31T11:00:34.824Z,79.7
2019-03-31T11:01:05.425Z,79.7
2019-03-31T11:02:32.890Z,79.7
2019-03-31T11:03:33.445Z,79.5
2019-03-31T11:04:31.119Z,79.7
2019-03-31T11:05:30.311Z,79.8
2019-03-31T11:07:28.993Z,80.4
2019-03-31T11:08:27.805Z,80
2019-03-31T11:08:58.401Z,80
2019-03-31T11:09:29.000Z,79.6
2019-03-31T11:09:59.599Z,79.6
2019-03-31T11:10:30.277Z,80
2019-03-31T11:11:00.768Z,80
2019-03-31T11:12:24.293Z,79.9
2019-03-31T11:13:23.663Z,79.5
2019-03-31T11:15:21.922Z,78.7
2019-03-31T11:16:20.707Z,79.2
2019-03-31T11:17:19.991Z,78.7
2019-03-31T11:18:19.362Z,78.6
2019-03-31T11:19:18.240Z,79.1
2019-03-31T11:19:48.926Z,79.1
2019-03-31T11:20:19.189Z,79
2019-03-31T11:20:49.778Z,79
2019-03-31T11:21:20.375Z,78.8
2019-03-31T11:21:50.526Z,78.8
2019-03-31T11:23:15.067Z,79.3
2019-03-31T11:25:25.327Z,79.1
2019-03-31T11:26:12.127Z,78.8
2019-03-31T11:28:10.384Z,78.9
2019-03-31T11:29:09.776Z,78.8
2019-03-31T11:30:08.658Z,79
2019-03-31T11:30:39.146Z,79
2019-03-31T11:31:09.401Z,79.1
2019-03-31T11:31:39.620Z,79.1
2019-03-31T11:32:10.311Z,79.4
2019-03-31T11:33:08.030Z,79
2019-03-31T11:34:05.423Z,79.2
2019-03-31T11:36:03.586Z,79.3
2019-03-31T11:37:14.010Z,79.3
2019-03-31T11:37:33.072Z,79.3
2019-03-31T11:38:03.761Z,79.4
2019-03-31T11:39:01.127Z,79.3
2019-03-31T11:39:59.925Z,79.7
2019-03-31T11:40:59.066Z,79.8
2019-03-31T11:41:29.766Z,79.8
2019-03-31T11:42:00.461Z,79.4
2019-03-31T11:43:56.609Z,79.3
2019-03-31T11:45:54.864Z,79.3
2019-03-31T11:47:53.062Z,79
2019-03-31T11:48:52.309Z,78.7
2019-03-31T11:49:51.081Z,78.6
2019-03-31T11:50:50.457Z,78.2
2019-03-31T11:51:49.327Z,78.4
2019-03-31T11:52:48.697Z,78.3
2019-03-31T11:53:47.584Z,78.2
2019-03-31T11:54:46.859Z,78.6
2019-03-31T11:55:46.166Z,78.7
2019-03-31T11:57:44.244Z,78.5
2019-03-31T11:58:43.454Z,78.7
2019-03-31T11:59:42.361Z,78.5
2019-03-31T12:00:41.726Z,78.9
2019-03-31T12:01:40.607Z,78.9
2019-03-31T12:02:40.071Z,78.8
2019-03-31T12:05:37.102Z,78.4
2019-03-31T12:07:47.559Z,77.9
2019-03-31T12:08:06.240Z,77.9
2019-03-31T12:08:36.744Z,77.6
2019-03-31T12:09:33.928Z,77.7
2019-03-31T12:10:32.875Z,77.1
2019-03-31T12:11:32.263Z,76.8
2019-03-31T12:12:31.135Z,76.7
2019-03-31T12:13:30.514Z,76.2
2019-03-31T12:14:29.286Z,76.5
2019-03-31T12:15:28.571Z,76.5
2019-03-31T12:16:27.441Z,76.5
2019-03-31T12:16:58.130Z,76.5
2019-03-31T12:17:28.819Z,76.5
2019-03-31T12:17:59.421Z,76.5
2019-03-31T12:19:25.307Z,76.6
2019-03-31T12:20:24.265Z,76.2
2019-03-31T12:21:23.467Z,76.4
2019-03-31T12:23:21.708Z,75.7
2019-03-31T12:25:20.484Z,75.7
2019-03-31T12:26:18.761Z,75.3
2019-03-31T12:26:49.015Z,75.3
2019-03-31T12:27:19.612Z,75.2
2019-03-31T12:27:50.209Z,75.2
2019-03-31T12:28:20.892Z,75.2
2019-03-31T12:28:51.582Z,75.2
2019-03-31T12:30:15.522Z,75.1
2019-03-31T12:31:14.397Z,75.2
2019-03-31T12:32:13.779Z,74.9
2019-03-31T12:33:13.061Z,74.7
2019-03-31T12:34:11.839Z,74.6
2019-03-31T12:35:11.218Z,74.7
2019-03-31T12:37:09.485Z,74.7
2019-03-31T12:37:43.550Z,74.7
2019-03-31T12:38:10.804Z,74.2
2019-03-31T12:38:41.026Z,74.2
2019-03-31T12:39:11.221Z,74
2019-03-31T12:39:41.701Z,74
2019-03-31T12:41:05.863Z,73.8